sensor_id;sensor_type;location;lat;lon;timestamp;P1;durP1;ratioP1;P2;durP2;ratioP2
58250;SDS011;51449;51.676;5.812;2023-02-28T00:02:00;14.97;;;9.50;;
58250;SDS011;51449;51.676;5.812;2023-02-28T00:04:22;12.63;;;8.83;;
58250;SDS011;51449;51.676;5.812;2023-02-28T00:06:43;12.40;;;8.77;;
58250;SDS011;51449;51.676;5.812;2023-02-28T00:11:30;11.77;;;9.10;;
58250;SDS011;51449;51.676;5.812;2023-02-28T00:13:52;12.50;;;8.70;;
58250;SDS011;51449;51.676;5.812;2023-02-28T00:16:15;13.90;;;8.57;;
58250;SDS011;51449;51.676;5.812;2023-02-28T00:18:42;12.17;;;8.77;;
58250;SDS011;51449;51.676;5.812;2023-02-28T00:21:04;12.53;;;8.07;;
58250;SDS011;51449;51.676;5.812;2023-02-28T00:23:27;12.30;;;8.57;;
58250;SDS011;51449;51.676;5.812;2023-02-28T00:25:50;10.75;;;7.95;;
58250;SDS011;51449;51.676;5.812;2023-02-28T00:28:12;11.13;;;8.13;;
58250;SDS011;51449;51.676;5.812;2023-02-28T00:30:34;10.67;;;8.13;;
58250;SDS011;51449;51.676;5.812;2023-02-28T00:32:58;10.45;;;8.25;;
58250;SDS011;51449;51.676;5.812;2023-02-28T00:35:20;13.03;;;8.50;;
58250;SDS011;51449;51.676;5.812;2023-02-28T00:37:42;11.47;;;8.60;;
58250;SDS011;51449;51.676;5.812;2023-02-28T00:40:04;14.57;;;8.50;;
58250;SDS011;51449;51.676;5.812;2023-02-28T00:42:27;11.80;;;8.32;;
58250;SDS011;51449;51.676;5.812;2023-02-28T00:44:49;11.87;;;8.33;;
58250;SDS011;51449;51.676;5.812;2023-02-28T00:47:11;11.13;;;8.10;;
58250;SDS011;51449;51.676;5.812;2023-02-28T00:49:33;12.73;;;8.20;;
58250;SDS011;51449;51.676;5.812;2023-02-28T00:51:56;10.03;;;7.77;;
58250;SDS011;51449;51.676;5.812;2023-02-28T00:54:20;13.00;;;8.50;;
58250;SDS011;51449;51.676;5.812;2023-02-28T00:56:42;11.53;;;8.43;;
58250;SDS011;51449;51.676;5.812;2023-02-28T00:59:04;11.03;;;8.10;;
58250;SDS011;51449;51.676;5.812;2023-02-28T01:01:26;12.70;;;8.47;;
58250;SDS011;51449;51.676;5.812;2023-02-28T01:03:48;12.07;;;7.80;;
58250;SDS011;51449;51.676;5.812;2023-02-28T01:06:10;11.67;;;8.00;;
58250;SDS011;51449;51.676;5.812;2023-02-28T01:08:32;11.03;;;7.60;;
58250;SDS011;51449;51.676;5.812;2023-02-28T01:10:54;13.27;;;8.70;;
58250;SDS011;51449;51.676;5.812;2023-02-28T01:13:16;9.97;;;7.67;;
58250;SDS011;51449;51.676;5.812;2023-02-28T01:15:38;10.57;;;7.73;;
58250;SDS011;51449;51.676;5.812;2023-02-28T01:18:07;9.83;;;7.90;;
58250;SDS011;51449;51.676;5.812;2023-02-28T01:20:28;11.50;;;7.63;;
58250;SDS011;51449;51.676;5.812;2023-02-28T01:22:50;10.63;;;7.73;;
58250;SDS011;51449;51.676;5.812;2023-02-28T01:25:12;10.33;;;7.40;;
58250;SDS011;51449;51.676;5.812;2023-02-28T01:27:34;11.20;;;7.57;;
58250;SDS011;51449;51.676;5.812;2023-02-28T01:29:57;10.07;;;7.40;;
58250;SDS011;51449;51.676;5.812;2023-02-28T01:32:18;11.03;;;8.07;;
58250;SDS011;51449;51.676;5.812;2023-02-28T01:34:40;9.47;;;7.63;;
58250;SDS011;51449;51.676;5.812;2023-02-28T01:37:01;11.27;;;8.23;;
58250;SDS011;51449;51.676;5.812;2023-02-28T01:39:25;10.60;;;7.60;;
58250;SDS011;51449;51.676;5.812;2023-02-28T01:41:48;13.30;;;8.07;;
58250;SDS011;51449;51.676;5.812;2023-02-28T01:47:21;11.10;;;6.83;;
58250;SDS011;51449;51.676;5.812;2023-02-28T01:49:47;12.23;;;8.30;;
58250;SDS011;51449;51.676;5.812;2023-02-28T01:52:09;10.23;;;7.63;;
58250;SDS011;51449;51.676;5.812;2023-02-28T01:54:40;11.93;;;7.73;;
58250;SDS011;51449;51.676;5.812;2023-02-28T01:59:37;10.27;;;7.70;;
58250;SDS011;51449;51.676;5.812;2023-02-28T02:02:13;11.77;;;7.73;;
58250;SDS011;51449;51.676;5.812;2023-02-28T02:04:38;12.20;;;7.93;;
58250;SDS011;51449;51.676;5.812;2023-02-28T02:07:14;11.73;;;7.77;;
58250;SDS011;51449;51.676;5.812;2023-02-28T02:09:38;13.88;;;8.82;;
58250;SDS011;51449;51.676;5.812;2023-02-28T02:12:01;12.03;;;7.97;;
58250;SDS011;51449;51.676;5.812;2023-02-28T02:14:51;13.45;;;8.75;;
58250;SDS011;51449;51.676;5.812;2023-02-28T02:17:45;10.03;;;7.50;;
58250;SDS011;51449;51.676;5.812;2023-02-28T02:23:18;12.13;;;8.53;;
58250;SDS011;51449;51.676;5.812;2023-02-28T02:26:44;12.03;;;7.83;;
58250;SDS011;51449;51.676;5.812;2023-02-28T02:35:52;9.10;;;7.23;;
58250;SDS011;51449;51.676;5.812;2023-02-28T02:43:40;12.17;;;7.00;;
58250;SDS011;51449;51.676;5.812;2023-02-28T02:46:26;11.80;;;7.45;;
58250;SDS011;51449;51.676;5.812;2023-02-28T02:48:59;11.03;;;6.87;;
58250;SDS011;51449;51.676;5.812;2023-02-28T02:51:29;9.37;;;6.37;;
58250;SDS011;51449;51.676;5.812;2023-02-28T02:54:01;8.87;;;6.60;;
58250;SDS011;51449;51.676;5.812;2023-02-28T02:56:28;9.53;;;6.27;;
58250;SDS011;51449;51.676;5.812;2023-02-28T02:58:56;9.90;;;6.50;;
58250;SDS011;51449;51.676;5.812;2023-02-28T03:01:25;10.87;;;6.80;;
58250;SDS011;51449;51.676;5.812;2023-02-28T03:04:10;9.90;;;6.60;;
58250;SDS011;51449;51.676;5.812;2023-02-28T03:06:40;9.83;;;6.53;;
58250;SDS011;51449;51.676;5.812;2023-02-28T03:09:03;11.17;;;6.67;;
58250;SDS011;51449;51.676;5.812;2023-02-28T03:11:25;9.47;;;5.90;;
58250;SDS011;51449;51.676;5.812;2023-02-28T03:22:25;7.30;;;5.57;;
58250;SDS011;51449;51.676;5.812;2023-02-28T03:27:24;9.27;;;5.80;;
58250;SDS011;51449;51.676;5.812;2023-02-28T03:30:02;9.13;;;5.63;;
58250;SDS011;51449;51.676;5.812;2023-02-28T03:32:42;9.80;;;5.70;;
58250;SDS011;51449;51.676;5.812;2023-02-28T03:35:23;9.40;;;5.73;;
58250;SDS011;51449;51.676;5.812;2023-02-28T03:37:55;8.05;;;5.57;;
58250;SDS011;51449;51.676;5.812;2023-02-28T03:40:28;8.40;;;5.82;;
58250;SDS011;51449;51.676;5.812;2023-02-28T03:42:59;8.97;;;5.57;;
58250;SDS011;51449;51.676;5.812;2023-02-28T03:45:32;8.23;;;5.30;;
58250;SDS011;51449;51.676;5.812;2023-02-28T03:50:49;8.73;;;5.60;;
58250;SDS011;51449;51.676;5.812;2023-02-28T03:53:25;9.30;;;6.00;;
58250;SDS011;51449;51.676;5.812;2023-02-28T03:55:55;5.68;;;5.00;;
58250;SDS011;51449;51.676;5.812;2023-02-28T03:58:32;8.23;;;5.23;;
58250;SDS011;51449;51.676;5.812;2023-02-28T04:01:07;6.23;;;4.80;;
58250;SDS011;51449;51.676;5.812;2023-02-28T04:03:41;6.53;;;5.13;;
58250;SDS011;51449;51.676;5.812;2023-02-28T04:06:03;8.17;;;4.97;;
58250;SDS011;51449;51.676;5.812;2023-02-28T04:08:29;10.83;;;5.43;;
58250;SDS011;51449;51.676;5.812;2023-02-28T04:10:56;6.53;;;4.70;;
58250;SDS011;51449;51.676;5.812;2023-02-28T04:13:27;9.43;;;5.40;;
58250;SDS011;51449;51.676;5.812;2023-02-28T04:15:49;6.03;;;4.70;;
58250;SDS011;51449;51.676;5.812;2023-02-28T04:18:11;6.83;;;4.63;;
58250;SDS011;51449;51.676;5.812;2023-02-28T04:20:32;6.07;;;4.90;;
58250;SDS011;51449;51.676;5.812;2023-02-28T04:22:54;6.33;;;4.47;;
58250;SDS011;51449;51.676;5.812;2023-02-28T04:25:15;6.10;;;4.33;;
58250;SDS011;51449;51.676;5.812;2023-02-28T04:27:37;7.90;;;4.70;;
58250;SDS011;51449;51.676;5.812;2023-02-28T04:29:59;7.13;;;4.23;;
58250;SDS011;51449;51.676;5.812;2023-02-28T04:32:21;5.93;;;4.50;;
58250;SDS011;51449;51.676;5.812;2023-02-28T04:34:42;4.93;;;4.20;;
58250;SDS011;51449;51.676;5.812;2023-02-28T04:37:04;6.13;;;4.47;;
58250;SDS011;51449;51.676;5.812;2023-02-28T04:39:34;5.90;;;4.57;;
58250;SDS011;51449;51.676;5.812;2023-02-28T04:41:57;6.22;;;4.88;;
58250;SDS011;51449;51.676;5.812;2023-02-28T04:44:19;7.20;;;4.97;;
58250;SDS011;51449;51.676;5.812;2023-02-28T04:46:41;6.77;;;5.37;;
58250;SDS011;51449;51.676;5.812;2023-02-28T04:49:04;8.50;;;5.83;;
58250;SDS011;51449;51.676;5.812;2023-02-28T04:51:25;9.07;;;6.10;;
58250;SDS011;51449;51.676;5.812;2023-02-28T04:53:49;7.93;;;5.37;;
58250;SDS011;51449;51.676;5.812;2023-02-28T04:56:12;6.78;;;4.88;;
58250;SDS011;51449;51.676;5.812;2023-02-28T04:58:37;10.03;;;5.80;;
58250;SDS011;51449;51.676;5.812;2023-02-28T05:01:32;9.70;;;5.30;;
58250;SDS011;51449;51.676;5.812;2023-02-28T05:03:56;6.30;;;5.00;;
58250;SDS011;51449;51.676;5.812;2023-02-28T05:06:21;7.90;;;4.93;;
58250;SDS011;51449;51.676;5.812;2023-02-28T05:08:46;6.97;;;5.40;;
58250;SDS011;51449;51.676;5.812;2023-02-28T05:11:13;6.97;;;5.10;;
58250;SDS011;51449;51.676;5.812;2023-02-28T05:13:37;6.57;;;4.93;;
58250;SDS011;51449;51.676;5.812;2023-02-28T05:15:59;7.13;;;4.80;;
58250;SDS011;51449;51.676;5.812;2023-02-28T05:18:21;6.70;;;4.77;;
58250;SDS011;51449;51.676;5.812;2023-02-28T05:20:42;8.87;;;5.20;;
58250;SDS011;51449;51.676;5.812;2023-02-28T05:23:04;6.37;;;4.93;;
58250;SDS011;51449;51.676;5.812;2023-02-28T05:25:26;6.17;;;5.07;;
58250;SDS011;51449;51.676;5.812;2023-02-28T05:27:48;7.07;;;5.17;;
58250;SDS011;51449;51.676;5.812;2023-02-28T05:30:10;9.20;;;4.87;;
58250;SDS011;51449;51.676;5.812;2023-02-28T05:32:32;6.83;;;5.00;;
58250;SDS011;51449;51.676;5.812;2023-02-28T05:34:54;6.90;;;5.03;;
58250;SDS011;51449;51.676;5.812;2023-02-28T05:37:16;8.30;;;5.73;;
58250;SDS011;51449;51.676;5.812;2023-02-28T05:39:37;8.00;;;4.97;;
58250;SDS011;51449;51.676;5.812;2023-02-28T05:41:59;8.90;;;5.23;;
58250;SDS011;51449;51.676;5.812;2023-02-28T05:44:21;7.67;;;5.00;;
58250;SDS011;51449;51.676;5.812;2023-02-28T05:46:43;9.87;;;5.60;;
58250;SDS011;51449;51.676;5.812;2023-02-28T05:49:05;8.03;;;5.77;;
58250;SDS011;51449;51.676;5.812;2023-02-28T05:51:27;8.37;;;5.63;;
58250;SDS011;51449;51.676;5.812;2023-02-28T05:53:49;9.13;;;5.70;;
58250;SDS011;51449;51.676;5.812;2023-02-28T05:56:11;8.73;;;5.70;;
58250;SDS011;51449;51.676;5.812;2023-02-28T05:58:33;6.87;;;5.53;;
58250;SDS011;51449;51.676;5.812;2023-02-28T06:00:56;11.33;;;5.70;;
58250;SDS011;51449;51.676;5.812;2023-02-28T06:03:20;8.77;;;5.85;;
58250;SDS011;51449;51.676;5.812;2023-02-28T06:05:41;7.50;;;5.50;;
58250;SDS011;51449;51.676;5.812;2023-02-28T06:08:03;7.47;;;6.20;;
58250;SDS011;51449;51.676;5.812;2023-02-28T06:10:25;10.43;;;6.87;;
58250;SDS011;51449;51.676;5.812;2023-02-28T06:12:46;9.70;;;6.20;;
58250;SDS011;51449;51.676;5.812;2023-02-28T06:15:12;7.10;;;6.23;;
58250;SDS011;51449;51.676;5.812;2023-02-28T06:17:36;9.63;;;6.07;;
58250;SDS011;51449;51.676;5.812;2023-02-28T06:19:57;10.67;;;6.47;;
58250;SDS011;51449;51.676;5.812;2023-02-28T06:22:19;9.93;;;5.57;;
58250;SDS011;51449;51.676;5.812;2023-02-28T06:24:40;6.63;;;5.87;;
58250;SDS011;51449;51.676;5.812;2023-02-28T06:27:02;9.03;;;6.10;;
58250;SDS011;51449;51.676;5.812;2023-02-28T06:29:27;9.33;;;5.87;;
58250;SDS011;51449;51.676;5.812;2023-02-28T06:31:48;10.67;;;6.17;;
58250;SDS011;51449;51.676;5.812;2023-02-28T06:34:10;11.57;;;6.23;;
58250;SDS011;51449;51.676;5.812;2023-02-28T06:36:35;7.80;;;5.60;;
58250;SDS011;51449;51.676;5.812;2023-02-28T06:38:56;8.33;;;6.20;;
58250;SDS011;51449;51.676;5.812;2023-02-28T06:41:18;8.30;;;5.93;;
58250;SDS011;51449;51.676;5.812;2023-02-28T06:43:41;10.37;;;6.10;;
58250;SDS011;51449;51.676;5.812;2023-02-28T06:46:04;8.07;;;5.67;;
58250;SDS011;51449;51.676;5.812;2023-02-28T06:48:28;9.20;;;5.77;;
58250;SDS011;51449;51.676;5.812;2023-02-28T06:50:50;9.87;;;5.43;;
58250;SDS011;51449;51.676;5.812;2023-02-28T06:53:12;9.60;;;5.70;;
58250;SDS011;51449;51.676;5.812;2023-02-28T06:55:34;8.47;;;5.87;;
58250;SDS011;51449;51.676;5.812;2023-02-28T06:57:56;7.33;;;5.70;;
58250;SDS011;51449;51.676;5.812;2023-02-28T07:00:18;8.27;;;5.70;;
58250;SDS011;51449;51.676;5.812;2023-02-28T07:02:40;9.20;;;5.73;;
58250;SDS011;51449;51.676;5.812;2023-02-28T07:05:02;8.77;;;6.17;;
58250;SDS011;51449;51.676;5.812;2023-02-28T07:07:26;9.98;;;6.20;;
58250;SDS011;51449;51.676;5.812;2023-02-28T07:09:48;12.20;;;6.77;;
58250;SDS011;51449;51.676;5.812;2023-02-28T07:12:09;7.20;;;5.30;;
58250;SDS011;51449;51.676;5.812;2023-02-28T07:14:31;8.37;;;5.83;;
58250;SDS011;51449;51.676;5.812;2023-02-28T07:16:53;9.17;;;5.57;;
58250;SDS011;51449;51.676;5.812;2023-02-28T07:19:14;7.10;;;5.53;;
58250;SDS011;51449;51.676;5.812;2023-02-28T07:21:36;9.67;;;5.87;;
58250;SDS011;51449;51.676;5.812;2023-02-28T07:23:59;8.63;;;5.83;;
58250;SDS011;51449;51.676;5.812;2023-02-28T07:26:20;6.37;;;5.30;;
58250;SDS011;51449;51.676;5.812;2023-02-28T07:28:42;6.53;;;5.30;;
58250;SDS011;51449;51.676;5.812;2023-02-28T07:31:06;6.00;;;5.40;;
58250;SDS011;51449;51.676;5.812;2023-02-28T07:33:29;6.82;;;5.63;;
58250;SDS011;51449;51.676;5.812;2023-02-28T07:35:51;6.83;;;5.27;;
58250;SDS011;51449;51.676;5.812;2023-02-28T07:38:13;18.80;;;13.17;;
58250;SDS011;51449;51.676;5.812;2023-02-28T07:40:35;14.37;;;11.13;;
58250;SDS011;51449;51.676;5.812;2023-02-28T07:42:58;18.27;;;11.57;;
58250;SDS011;51449;51.676;5.812;2023-02-28T07:45:22;16.10;;;11.10;;
58250;SDS011;51449;51.676;5.812;2023-02-28T07:47:43;11.03;;;7.67;;
58250;SDS011;51449;51.676;5.812;2023-02-28T07:50:06;8.50;;;6.23;;
58250;SDS011;51449;51.676;5.812;2023-02-28T07:52:32;9.77;;;6.10;;
58250;SDS011;51449;51.676;5.812;2023-02-28T07:54:53;11.57;;;6.90;;
58250;SDS011;51449;51.676;5.812;2023-02-28T07:57:15;7.03;;;4.87;;
58250;SDS011;51449;51.676;5.812;2023-02-28T07:59:37;5.60;;;4.60;;
58250;SDS011;51449;51.676;5.812;2023-02-28T08:01:58;15.47;;;7.50;;
58250;SDS011;51449;51.676;5.812;2023-02-28T08:04:20;9.07;;;5.03;;
58250;SDS011;51449;51.676;5.812;2023-02-28T08:06:42;6.13;;;4.07;;
58250;SDS011;51449;51.676;5.812;2023-02-28T08:09:03;5.60;;;3.73;;
58250;SDS011;51449;51.676;5.812;2023-02-28T08:11:25;4.33;;;3.17;;
58250;SDS011;51449;51.676;5.812;2023-02-28T08:13:47;3.77;;;3.30;;
58250;SDS011;51449;51.676;5.812;2023-02-28T08:16:09;3.60;;;3.13;;
58250;SDS011;51449;51.676;5.812;2023-02-28T08:20:55;3.90;;;2.93;;
58250;SDS011;51449;51.676;5.812;2023-02-28T08:23:17;3.83;;;2.60;;
58250;SDS011;51449;51.676;5.812;2023-02-28T08:25:39;4.97;;;2.83;;
58250;SDS011;51449;51.676;5.812;2023-02-28T08:28:01;3.53;;;2.63;;
58250;SDS011;51449;51.676;5.812;2023-02-28T08:30:23;3.47;;;2.40;;
58250;SDS011;51449;51.676;5.812;2023-02-28T08:32:45;4.53;;;2.33;;
58250;SDS011;51449;51.676;5.812;2023-02-28T08:35:07;5.20;;;2.30;;
58250;SDS011;51449;51.676;5.812;2023-02-28T08:37:30;3.37;;;2.27;;
58250;SDS011;51449;51.676;5.812;2023-02-28T08:39:52;3.27;;;2.10;;
58250;SDS011;51449;51.676;5.812;2023-02-28T08:44:38;5.30;;;2.70;;
58250;SDS011;51449;51.676;5.812;2023-02-28T08:46:59;3.90;;;2.50;;
58250;SDS011;51449;51.676;5.812;2023-02-28T08:49:21;3.47;;;2.47;;
58250;SDS011;51449;51.676;5.812;2023-02-28T08:51:43;3.20;;;2.50;;
58250;SDS011;51449;51.676;5.812;2023-02-28T08:54:04;3.67;;;2.60;;
58250;SDS011;51449;51.676;5.812;2023-02-28T08:56:27;3.07;;;2.43;;
58250;SDS011;51449;51.676;5.812;2023-02-28T08:58:49;5.17;;;2.50;;
58250;SDS011;51449;51.676;5.812;2023-02-28T09:01:12;3.20;;;2.30;;
58250;SDS011;51449;51.676;5.812;2023-02-28T09:03:41;3.10;;;2.10;;
58250;SDS011;51449;51.676;5.812;2023-02-28T09:06:04;3.03;;;2.23;;
58250;SDS011;51449;51.676;5.812;2023-02-28T09:08:27;2.97;;;2.20;;
58250;SDS011;51449;51.676;5.812;2023-02-28T09:10:51;2.67;;;2.03;;
58250;SDS011;51449;51.676;5.812;2023-02-28T09:13:13;2.80;;;2.00;;
58250;SDS011;51449;51.676;5.812;2023-02-28T09:15:36;2.20;;;2.00;;
58250;SDS011;51449;51.676;5.812;2023-02-28T09:20:21;3.00;;;2.23;;
58250;SDS011;51449;51.676;5.812;2023-02-28T09:22:42;2.53;;;2.30;;
58250;SDS011;51449;51.676;5.812;2023-02-28T09:25:04;2.63;;;2.20;;
58250;SDS011;51449;51.676;5.812;2023-02-28T09:27:26;2.80;;;1.90;;
58250;SDS011;51449;51.676;5.812;2023-02-28T09:29:48;4.90;;;2.33;;
58250;SDS011;51449;51.676;5.812;2023-02-28T09:32:09;4.90;;;2.53;;
58250;SDS011;51449;51.676;5.812;2023-02-28T09:34:31;2.10;;;1.87;;
58250;SDS011;51449;51.676;5.812;2023-02-28T09:36:53;2.83;;;2.00;;
58250;SDS011;51449;51.676;5.812;2023-02-28T09:39:15;4.30;;;2.23;;
58250;SDS011;51449;51.676;5.812;2023-02-28T09:41:38;2.13;;;1.87;;
58250;SDS011;51449;51.676;5.812;2023-02-28T09:46:46;2.80;;;2.17;;
58250;SDS011;51449;51.676;5.812;2023-02-28T09:49:16;2.37;;;2.00;;
58250;SDS011;51449;51.676;5.812;2023-02-28T09:54:18;1.97;;;1.77;;
58250;SDS011;51449;51.676;5.812;2023-02-28T09:56:45;2.93;;;1.50;;
58250;SDS011;51449;51.676;5.812;2023-02-28T10:01:58;3.57;;;1.70;;
58250;SDS011;51449;51.676;5.812;2023-02-28T10:05:07;2.87;;;2.20;;
58250;SDS011;51449;51.676;5.812;2023-02-28T10:10:24;2.37;;;2.10;;
58250;SDS011;51449;51.676;5.812;2023-02-28T10:12:55;2.83;;;1.83;;
58250;SDS011;51449;51.676;5.812;2023-02-28T10:15:21;2.27;;;1.70;;
58250;SDS011;51449;51.676;5.812;2023-02-28T10:17:49;2.33;;;2.13;;
58250;SDS011;51449;51.676;5.812;2023-02-28T10:20:29;2.97;;;2.47;;
58250;SDS011;51449;51.676;5.812;2023-02-28T10:25:57;2.70;;;2.20;;
58250;SDS011;51449;51.676;5.812;2023-02-28T10:28:33;2.03;;;1.83;;
58250;SDS011;51449;51.676;5.812;2023-02-28T10:30:55;1.83;;;1.70;;
58250;SDS011;51449;51.676;5.812;2023-02-28T10:33:23;1.80;;;1.57;;
58250;SDS011;51449;51.676;5.812;2023-02-28T10:35:55;3.20;;;1.90;;
58250;SDS011;51449;51.676;5.812;2023-02-28T10:38:19;2.87;;;1.80;;
58250;SDS011;51449;51.676;5.812;2023-02-28T10:41:09;1.87;;;1.60;;
58250;SDS011;51449;51.676;5.812;2023-02-28T10:43:34;1.97;;;1.43;;
58250;SDS011;51449;51.676;5.812;2023-02-28T10:45:58;1.83;;;1.70;;
58250;SDS011;51449;51.676;5.812;2023-02-28T10:48:26;2.40;;;1.70;;
58250;SDS011;51449;51.676;5.812;2023-02-28T10:50:53;2.10;;;1.90;;
58250;SDS011;51449;51.676;5.812;2023-02-28T10:55:53;2.60;;;1.77;;
58250;SDS011;51449;51.676;5.812;2023-02-28T10:58:23;2.20;;;2.00;;
58250;SDS011;51449;51.676;5.812;2023-02-28T11:00:47;2.57;;;1.90;;
58250;SDS011;51449;51.676;5.812;2023-02-28T11:03:22;2.77;;;2.00;;
58250;SDS011;51449;51.676;5.812;2023-02-28T11:05:50;2.77;;;1.80;;
58250;SDS011;51449;51.676;5.812;2023-02-28T11:08:14;2.37;;;1.60;;
58250;SDS011;51449;51.676;5.812;2023-02-28T11:10:38;2.40;;;1.90;;
58250;SDS011;51449;51.676;5.812;2023-02-28T11:13:00;3.03;;;2.10;;
58250;SDS011;51449;51.676;5.812;2023-02-28T11:15:24;2.10;;;2.00;;
58250;SDS011;51449;51.676;5.812;2023-02-28T11:18:39;1.70;;;1.60;;
58250;SDS011;51449;51.676;5.812;2023-02-28T11:20:50;3.23;;;2.17;;
58250;SDS011;51449;51.676;5.812;2023-02-28T11:23:17;2.57;;;1.90;;
58250;SDS011;51449;51.676;5.812;2023-02-28T11:25:45;2.83;;;2.23;;
58250;SDS011;51449;51.676;5.812;2023-02-28T11:28:26;2.77;;;2.20;;
58250;SDS011;51449;51.676;5.812;2023-02-28T11:33:53;2.90;;;2.37;;
58250;SDS011;51449;51.676;5.812;2023-02-28T11:36:21;3.15;;;1.90;;
58250;SDS011;51449;51.676;5.812;2023-02-28T11:38:53;1.80;;;1.70;;
58250;SDS011;51449;51.676;5.812;2023-02-28T11:41:49;3.07;;;1.90;;
58250;SDS011;51449;51.676;5.812;2023-02-28T11:48:04;4.53;;;2.53;;
58250;SDS011;51449;51.676;5.812;2023-02-28T11:50:12;2.47;;;2.10;;
58250;SDS011;51449;51.676;5.812;2023-02-28T11:53:02;3.37;;;2.60;;
58250;SDS011;51449;51.676;5.812;2023-02-28T11:55:49;5.40;;;3.10;;
58250;SDS011;51449;51.676;5.812;2023-02-28T11:58:34;3.80;;;2.20;;
58250;SDS011;51449;51.676;5.812;2023-02-28T12:10:17;6.57;;;3.40;;
58250;SDS011;51449;51.676;5.812;2023-02-28T12:15:28;4.77;;;2.67;;
58250;SDS011;51449;51.676;5.812;2023-02-28T12:18:39;4.20;;;2.53;;
58250;SDS011;51449;51.676;5.812;2023-02-28T12:21:26;2.37;;;2.00;;
58250;SDS011;51449;51.676;5.812;2023-02-28T12:25:01;4.37;;;2.77;;
58250;SDS011;51449;51.676;5.812;2023-02-28T12:27:17;4.87;;;2.73;;
58250;SDS011;51449;51.676;5.812;2023-02-28T12:35:02;3.07;;;2.00;;
58250;SDS011;51449;51.676;5.812;2023-02-28T12:37:39;2.20;;;1.80;;
58250;SDS011;51449;51.676;5.812;2023-02-28T12:40:13;3.13;;;2.03;;
58250;SDS011;51449;51.676;5.812;2023-02-28T12:42:58;3.70;;;2.53;;
58250;SDS011;51449;51.676;5.812;2023-02-28T12:48:18;4.60;;;3.03;;
58250;SDS011;51449;51.676;5.812;2023-02-28T12:50:48;4.13;;;2.43;;
58250;SDS011;51449;51.676;5.812;2023-02-28T12:53:15;3.10;;;2.80;;
58250;SDS011;51449;51.676;5.812;2023-02-28T12:56:04;3.50;;;2.63;;
58250;SDS011;51449;51.676;5.812;2023-02-28T12:58:54;3.03;;;2.50;;
58250;SDS011;51449;51.676;5.812;2023-02-28T13:04:16;3.60;;;2.40;;
58250;SDS011;51449;51.676;5.812;2023-02-28T13:10:37;3.30;;;2.50;;
58250;SDS011;51449;51.676;5.812;2023-02-28T13:13:06;2.97;;;2.53;;
58250;SDS011;51449;51.676;5.812;2023-02-28T13:15:39;3.57;;;2.10;;
58250;SDS011;51449;51.676;5.812;2023-02-28T13:18:20;2.60;;;2.27;;
58250;SDS011;51449;51.676;5.812;2023-02-28T13:21:04;4.00;;;2.60;;
58250;SDS011;51449;51.676;5.812;2023-02-28T13:26:08;4.33;;;2.93;;
58250;SDS011;51449;51.676;5.812;2023-02-28T13:31:10;4.03;;;2.80;;
58250;SDS011;51449;51.676;5.812;2023-02-28T13:33:35;2.97;;;2.67;;
58250;SDS011;51449;51.676;5.812;2023-02-28T13:51:47;4.57;;;3.50;;
58250;SDS011;51449;51.676;5.812;2023-02-28T13:54:15;4.33;;;3.03;;
58250;SDS011;51449;51.676;5.812;2023-02-28T13:57:33;6.60;;;5.23;;
58250;SDS011;51449;51.676;5.812;2023-02-28T14:00:21;3.90;;;3.00;;
58250;SDS011;51449;51.676;5.812;2023-02-28T14:06:35;4.10;;;2.90;;
58250;SDS011;51449;51.676;5.812;2023-02-28T14:09:01;4.30;;;2.90;;
58250;SDS011;51449;51.676;5.812;2023-02-28T14:11:42;4.37;;;3.80;;
58250;SDS011;51449;51.676;5.812;2023-02-28T14:14:05;18.05;;;10.77;;
58250;SDS011;51449;51.676;5.812;2023-02-28T14:16:38;5.97;;;5.37;;
58250;SDS011;51449;51.676;5.812;2023-02-28T14:19:11;22.30;;;15.53;;
58250;SDS011;51449;51.676;5.812;2023-02-28T14:21:52;12.00;;;10.70;;
58250;SDS011;51449;51.676;5.812;2023-02-28T14:27:15;3.87;;;2.77;;
58250;SDS011;51449;51.676;5.812;2023-02-28T14:32:47;4.13;;;3.00;;
58250;SDS011;51449;51.676;5.812;2023-02-28T14:37:47;3.13;;;2.60;;
58250;SDS011;51449;51.676;5.812;2023-02-28T14:40:13;2.90;;;2.65;;
58250;SDS011;51449;51.676;5.812;2023-02-28T14:42:45;3.40;;;2.50;;
58250;SDS011;51449;51.676;5.812;2023-02-28T14:45:19;3.95;;;3.42;;
58250;SDS011;51449;51.676;5.812;2023-02-28T14:47:42;6.30;;;3.90;;
58250;SDS011;51449;51.676;5.812;2023-02-28T14:50:04;18.70;;;14.17;;
58250;SDS011;51449;51.676;5.812;2023-02-28T14:52:27;9.10;;;6.63;;
58250;SDS011;51449;51.676;5.812;2023-02-28T14:54:53;8.80;;;7.97;;
58250;SDS011;51449;51.676;5.812;2023-02-28T14:57:27;3.33;;;3.03;;
58250;SDS011;51449;51.676;5.812;2023-02-28T15:00:37;3.30;;;3.00;;
58250;SDS011;51449;51.676;5.812;2023-02-28T15:02:50;3.57;;;3.10;;
58250;SDS011;51449;51.676;5.812;2023-02-28T15:07:38;4.18;;;3.13;;
58250;SDS011;51449;51.676;5.812;2023-02-28T15:12:48;3.38;;;3.03;;
58250;SDS011;51449;51.676;5.812;2023-02-28T15:15:17;4.13;;;3.70;;
58250;SDS011;51449;51.676;5.812;2023-02-28T15:17:56;4.10;;;3.60;;
58250;SDS011;51449;51.676;5.812;2023-02-28T15:20:22;4.00;;;2.90;;
58250;SDS011;51449;51.676;5.812;2023-02-28T15:22:47;5.00;;;3.00;;
58250;SDS011;51449;51.676;5.812;2023-02-28T15:25:18;3.30;;;3.00;;
58250;SDS011;51449;51.676;5.812;2023-02-28T15:27:53;5.37;;;4.20;;
58250;SDS011;51449;51.676;5.812;2023-02-28T15:30:20;7.27;;;6.13;;
58250;SDS011;51449;51.676;5.812;2023-02-28T15:33:15;9.07;;;8.23;;
58250;SDS011;51449;51.676;5.812;2023-02-28T15:35:42;7.23;;;3.53;;
58250;SDS011;51449;51.676;5.812;2023-02-28T15:40:54;4.77;;;3.30;;
58250;SDS011;51449;51.676;5.812;2023-02-28T15:43:26;3.87;;;2.97;;
58250;SDS011;51449;51.676;5.812;2023-02-28T15:45:55;3.33;;;3.03;;
58250;SDS011;51449;51.676;5.812;2023-02-28T15:48:34;5.00;;;3.37;;
58250;SDS011;51449;51.676;5.812;2023-02-28T15:51:08;5.50;;;4.27;;
58250;SDS011;51449;51.676;5.812;2023-02-28T15:53:51;13.27;;;6.90;;
58250;SDS011;51449;51.676;5.812;2023-02-28T15:56:30;10.10;;;5.80;;
58250;SDS011;51449;51.676;5.812;2023-02-28T15:59:01;6.63;;;4.40;;
58250;SDS011;51449;51.676;5.812;2023-02-28T16:01:32;10.03;;;5.67;;
58250;SDS011;51449;51.676;5.812;2023-02-28T16:03:57;5.33;;;4.00;;
58250;SDS011;51449;51.676;5.812;2023-02-28T16:06:35;10.07;;;6.07;;
58250;SDS011;51449;51.676;5.812;2023-02-28T16:09:15;6.03;;;4.57;;
58250;SDS011;51449;51.676;5.812;2023-02-28T16:11:39;7.17;;;5.13;;
58250;SDS011;51449;51.676;5.812;2023-02-28T16:14:05;6.47;;;4.53;;
58250;SDS011;51449;51.676;5.812;2023-02-28T16:16:27;8.17;;;5.53;;
58250;SDS011;51449;51.676;5.812;2023-02-28T16:18:49;6.07;;;4.53;;
58250;SDS011;51449;51.676;5.812;2023-02-28T16:21:11;5.30;;;4.20;;
58250;SDS011;51449;51.676;5.812;2023-02-28T16:23:33;5.23;;;4.23;;
58250;SDS011;51449;51.676;5.812;2023-02-28T16:25:54;7.60;;;4.93;;
58250;SDS011;51449;51.676;5.812;2023-02-28T16:30:54;4.53;;;3.40;;
58250;SDS011;51449;51.676;5.812;2023-02-28T16:33:16;4.20;;;3.80;;
58250;SDS011;51449;51.676;5.812;2023-02-28T16:35:37;4.70;;;3.77;;
58250;SDS011;51449;51.676;5.812;2023-02-28T16:37:59;6.13;;;4.40;;
58250;SDS011;51449;51.676;5.812;2023-02-28T16:40:22;4.07;;;3.40;;
58250;SDS011;51449;51.676;5.812;2023-02-28T16:42:48;13.87;;;8.17;;
58250;SDS011;51449;51.676;5.812;2023-02-28T16:45:20;5.70;;;4.07;;
58250;SDS011;51449;51.676;5.812;2023-02-28T16:47:45;3.40;;;3.10;;
58250;SDS011;51449;51.676;5.812;2023-02-28T16:50:12;6.17;;;5.00;;
58250;SDS011;51449;51.676;5.812;2023-02-28T16:52:45;7.93;;;5.40;;
58250;SDS011;51449;51.676;5.812;2023-02-28T16:55:08;5.83;;;5.07;;
58250;SDS011;51449;51.676;5.812;2023-02-28T16:57:31;4.43;;;3.77;;
58250;SDS011;51449;51.676;5.812;2023-02-28T16:59:54;5.43;;;4.40;;
58250;SDS011;51449;51.676;5.812;2023-02-28T17:02:16;10.57;;;6.37;;